sensor_id;sensor_type;location;lat;lon;timestamp;pressure;altitude;pressure_sealevel;temperature;humidity
5356;BME280;70449;52.486;13.386;2023-06-14T00:02:10;101171.41;;;17.61;100.00
5356;BME280;70449;52.486;13.386;2023-06-14T00:04:37;101162.31;;;17.99;100.00
5356;BME280;70449;52.486;13.386;2023-06-14T00:07:11;101170.53;;;17.78;100.00
5356;BME280;70449;52.486;13.386;2023-06-14T00:09:39;101173.31;;;17.78;100.00
5356;BME280;70449;52.486;13.386;2023-06-14T00:12:07;101170.91;;;17.59;100.00
5356;BME280;70449;52.486;13.386;2023-06-14T00:14:35;101174.53;;;17.51;100.00
5356;BME280;70449;52.486;13.386;2023-06-14T00:17:04;101177.03;;;16.92;100.00
5356;BME280;70449;52.486;13.386;2023-06-14T00:19:35;101176.50;;;17.42;100.00
5356;BME280;70449;52.486;13.386;2023-06-14T00:22:03;101173.78;;;17.16;100.00
5356;BME280;70449;52.486;13.386;2023-06-14T00:24:30;101174.53;;;17.42;100.00
5356;BME280;70449;52.486;13.386;2023-06-14T00:26:58;101172.91;;;17.50;100.00
5356;BME280;70449;52.486;13.386;2023-06-14T00:29:25;101170.06;;;17.85;100.00
5356;BME280;70449;52.486;13.386;2023-06-14T00:31:52;101171.88;;;17.63;100.00
5356;BME280;70449;52.486;13.386;2023-06-14T00:34:20;101167.81;;;17.61;100.00
5356;BME280;70449;52.486;13.386;2023-06-14T00:36:48;101181.25;;;17.24;100.00
5356;BME280;70449;52.486;13.386;2023-06-14T00:39:15;101174.56;;;17.16;100.00
5356;BME280;70449;52.486;13.386;2023-06-14T00:41:42;101175.38;;;17.17;100.00
5356;BME280;70449;52.486;13.386;2023-06-14T00:44:09;101182.19;;;17.45;100.00
5356;BME280;70449;52.486;13.386;2023-06-14T00:46:36;101177.81;;;17.36;100.00
5356;BME280;70449;52.486;13.386;2023-06-14T00:49:04;101179.91;;;17.48;100.00
5356;BME280;70449;52.486;13.386;2023-06-14T00:51:33;101178.47;;;17.33;100.00
5356;BME280;70449;52.486;13.386;2023-06-14T00:54:00;101176.22;;;17.00;100.00
5356;BME280;70449;52.486;13.386;2023-06-14T00:56:27;101175.72;;;17.15;100.00
5356;BME280;70449;52.486;13.386;2023-06-14T00:58:56;101173.91;;;17.37;100.00
5356;BME280;70449;52.486;13.386;2023-06-14T01:01:23;101177.84;;;17.10;100.00
5356;BME280;70449;52.486;13.386;2023-06-14T01:03:51;101178.13;;;17.43;100.00
5356;BME280;70449;52.486;13.386;2023-06-14T01:06:31;101172.13;;;17.41;100.00
5356;BME280;70449;52.486;13.386;2023-06-14T01:09:12;101167.75;;;17.05;100.00
5356;BME280;70449;52.486;13.386;2023-06-14T01:11:53;101176.88;;;17.23;100.00
5356;BME280;70449;52.486;13.386;2023-06-14T01:14:25;101166.78;;;17.01;100.00
5356;BME280;70449;52.486;13.386;2023-06-14T01:16:53;101174.22;;;17.44;100.00
5356;BME280;70449;52.486;13.386;2023-06-14T01:19:21;101176.69;;;17.19;100.00
5356;BME280;70449;52.486;13.386;2023-06-14T01:21:51;101177.19;;;17.04;100.00
5356;BME280;70449;52.486;13.386;2023-06-14T01:24:20;101170.69;;;17.00;100.00
5356;BME280;70449;52.486;13.386;2023-06-14T01:26:53;101171.78;;;17.25;100.00
5356;BME280;70449;52.486;13.386;2023-06-14T01:29:22;101172.81;;;16.77;100.00
5356;BME280;70449;52.486;13.386;2023-06-14T01:31:51;101177.19;;;16.87;100.00
5356;BME280;70449;52.486;13.386;2023-06-14T01:34:20;101174.09;;;17.23;100.00
5356;BME280;70449;52.486;13.386;2023-06-14T01:36:48;101162.50;;;17.30;100.00
5356;BME280;70449;52.486;13.386;2023-06-14T01:39:17;101170.69;;;17.00;100.00
5356;BME280;70449;52.486;13.386;2023-06-14T01:41:48;101161.22;;;17.01;100.00
5356;BME280;70449;52.486;13.386;2023-06-14T01:44:18;101160.88;;;17.29;100.00
5356;BME280;70449;52.486;13.386;2023-06-14T01:46:46;101168.38;;;17.19;100.00
5356;BME280;70449;52.486;13.386;2023-06-14T01:49:14;101169.03;;;16.99;100.00
5356;BME280;70449;52.486;13.386;2023-06-14T01:51:41;101171.34;;;16.97;100.00
5356;BME280;70449;52.486;13.386;2023-06-14T01:54:08;101168.75;;;16.92;100.00
5356;BME280;70449;52.486;13.386;2023-06-14T01:56:36;101171.00;;;17.07;100.00
5356;BME280;70449;52.486;13.386;2023-06-14T01:59:05;101170.66;;;17.35;100.00
5356;BME280;70449;52.486;13.386;2023-06-14T02:01:33;101170.69;;;17.17;100.00
5356;BME280;70449;52.486;13.386;2023-06-14T02:04:02;101176.53;;;16.90;100.00
5356;BME280;70449;52.486;13.386;2023-06-14T02:06:30;101182.09;;;16.90;100.00
5356;BME280;70449;52.486;13.386;2023-06-14T02:08:57;101180.72;;;16.61;100.00
5356;BME280;70449;52.486;13.386;2023-06-14T02:11:24;101179.81;;;16.92;100.00
5356;BME280;70449;52.486;13.386;2023-06-14T02:13:52;101182.03;;;16.55;100.00
5356;BME280;70449;52.486;13.386;2023-06-14T02:16:22;101181.22;;;16.63;100.00
5356;BME280;70449;52.486;13.386;2023-06-14T02:18:50;101185.84;;;16.76;100.00
5356;BME280;70449;52.486;13.386;2023-06-14T02:21:17;101186.75;;;16.63;100.00
5356;BME280;70449;52.486;13.386;2023-06-14T02:23:44;101180.56;;;16.66;100.00
5356;BME280;70449;52.486;13.386;2023-06-14T02:26:12;101181.72;;;16.65;100.00
5356;BME280;70449;52.486;13.386;2023-06-14T02:28:39;101179.94;;;16.69;100.00
5356;BME280;70449;52.486;13.386;2023-06-14T02:31:07;101172.25;;;16.49;100.00
5356;BME280;70449;52.486;13.386;2023-06-14T02:33:36;101179.41;;;16.32;100.00
5356;BME280;70449;52.486;13.386;2023-06-14T02:36:04;101177.47;;;16.50;100.00
5356;BME280;70449;52.486;13.386;2023-06-14T02:38:32;101185.28;;;16.57;100.00
5356;BME280;70449;52.486;13.386;2023-06-14T02:40:59;101188.22;;;16.52;100.00
5356;BME280;70449;52.486;13.386;2023-06-14T02:43:29;101186.00;;;16.89;100.00
5356;BME280;70449;52.486;13.386;2023-06-14T02:45:56;101182.53;;;16.74;100.00
5356;BME280;70449;52.486;13.386;2023-06-14T02:48:24;101190.88;;;17.09;100.00
5356;BME280;70449;52.486;13.386;2023-06-14T02:50:53;101178.78;;;16.53;100.00
5356;BME280;70449;52.486;13.386;2023-06-14T02:53:22;101185.28;;;16.57;100.00
5356;BME280;70449;52.486;13.386;2023-06-14T02:55:49;101197.59;;;16.33;100.00
5356;BME280;70449;52.486;13.386;2023-06-14T02:58:18;101186.13;;;16.75;100.00
5356;BME280;70449;52.486;13.386;2023-06-14T03:00:46;101188.63;;;16.76;100.00
5356;BME280;70449;52.486;13.386;2023-06-14T03:03:13;101186.25;;;16.61;100.00
5356;BME280;70449;52.486;13.386;2023-06-14T03:05:43;101187.25;;;16.65;100.00
5356;BME280;70449;52.486;13.386;2023-06-14T03:08:13;101178.94;;;16.57;100.00
5356;BME280;70449;52.486;13.386;2023-06-14T03:10:43;101183.72;;;16.91;100.00
5356;BME280;70449;52.486;13.386;2023-06-14T03:13:10;101179.78;;;16.74;100.00
5356;BME280;70449;52.486;13.386;2023-06-14T03:15:38;101177.69;;;16.80;100.00
5356;BME280;70449;52.486;13.386;2023-06-14T03:18:08;101183.19;;;16.71;100.00
5356;BME280;70449;52.486;13.386;2023-06-14T03:20:37;101186.97;;;16.93;100.00
5356;BME280;70449;52.486;13.386;2023-06-14T03:23:05;101184.00;;;16.63;100.00
5356;BME280;70449;52.486;13.386;2023-06-14T03:25:35;101183.72;;;16.91;100.00
5356;BME280;70449;52.486;13.386;2023-06-14T03:28:04;101192.00;;;16.73;100.00
5356;BME280;70449;52.486;13.386;2023-06-14T03:30:32;101191.66;;;16.66;100.00
5356;BME280;70449;52.486;13.386;2023-06-14T03:32:59;101193.16;;;16.90;100.00
5356;BME280;70449;52.486;13.386;2023-06-14T03:35:27;101187.97;;;16.88;100.00
5356;BME280;70449;52.486;13.386;2023-06-14T03:37:55;101191.34;;;16.68;100.00
5356;BME280;70449;52.486;13.386;2023-06-14T03:40:23;101190.22;;;16.77;100.00
5356;BME280;70449;52.486;13.386;2023-06-14T03:42:54;101193.78;;;16.69;100.00
5356;BME280;70449;52.486;13.386;2023-06-14T03:45:22;101197.09;;;17.15;100.00
5356;BME280;70449;52.486;13.386;2023-06-14T03:47:49;101204.91;;;17.04;100.00
5356;BME280;70449;52.486;13.386;2023-06-14T03:50:18;101205.84;;;16.73;100.00
5356;BME280;70449;52.486;13.386;2023-06-14T03:52:48;101207.81;;;17.16;100.00
5356;BME280;70449;52.486;13.386;2023-06-14T03:55:18;101204.25;;;17.07;100.00
5356;BME280;70449;52.486;13.386;2023-06-14T03:57:45;101213.69;;;16.89;100.00
5356;BME280;70449;52.486;13.386;2023-06-14T04:00:15;101208.47;;;17.13;100.00
5356;BME280;70449;52.486;13.386;2023-06-14T04:02:42;101214.34;;;16.86;100.00
5356;BME280;70449;52.486;13.386;2023-06-14T04:05:11;101206.34;;;16.93;100.00
5356;BME280;70449;52.486;13.386;2023-06-14T04:07:38;101215.97;;;17.21;100.00
5356;BME280;70449;52.486;13.386;2023-06-14T04:10:11;101225.91;;;17.05;100.00
5356;BME280;70449;52.486;13.386;2023-06-14T04:12:39;101223.31;;;16.91;100.00
5356;BME280;70449;52.486;13.386;2023-06-14T04:15:07;101232.44;;;17.18;100.00
5356;BME280;70449;52.486;13.386;2023-06-14T04:17:38;101223.78;;;17.37;100.00
5356;BME280;70449;52.486;13.386;2023-06-14T04:20:06;101219.88;;;17.38;100.00
5356;BME280;70449;52.486;13.386;2023-06-14T04:22:35;101223.47;;;17.47;100.00
5356;BME280;70449;52.486;13.386;2023-06-14T04:25:04;101225.03;;;17.83;100.00
5356;BME280;70449;52.486;13.386;2023-06-14T04:27:32;101220.53;;;17.35;100.00
5356;BME280;70449;52.486;13.386;2023-06-14T04:30:02;101232.59;;;17.39;100.00
5356;BME280;70449;52.486;13.386;2023-06-14T04:32:30;101234.97;;;17.66;100.00
5356;BME280;70449;52.486;13.386;2023-06-14T04:35:01;101228.97;;;17.82;100.00
5356;BME280;70449;52.486;13.386;2023-06-14T04:37:30;101222.13;;;17.53;100.00
5356;BME280;70449;52.486;13.386;2023-06-14T04:39:58;101225.03;;;17.65;100.00
5356;BME280;70449;52.486;13.386;2023-06-14T04:42:26;101218.22;;;18.10;100.00
5356;BME280;70449;52.486;13.386;2023-06-14T04:44:57;101230.81;;;18.07;100.00
5356;BME280;70449;52.486;13.386;2023-06-14T04:47:24;101225.56;;;18.15;100.00
5356;BME280;70449;52.486;13.386;2023-06-14T04:49:56;101222.13;;;18.47;100.00
5356;BME280;70449;52.486;13.386;2023-06-14T04:52:25;101230.38;;;18.65;100.00
5356;BME280;70449;52.486;13.386;2023-06-14T04:54:56;101229.78;;;18.21;100.00
5356;BME280;70449;52.486;13.386;2023-06-14T04:57:23;101222.16;;;18.09;100.00
5356;BME280;70449;52.486;13.386;2023-06-14T04:59:51;101224.66;;;18.61;100.00
5356;BME280;70449;52.486;13.386;2023-06-14T05:02:22;101227.84;;;18.72;100.00
5356;BME280;70449;52.486;13.386;2023-06-14T05:04:50;101223.94;;;18.73;100.00
5356;BME280;70449;52.486;13.386;2023-06-14T05:07:18;101230.19;;;18.40;100.00
5356;BME280;70449;52.486;13.386;2023-06-14T05:09:47;101233.81;;;18.62;100.00
5356;BME280;70449;52.486;13.386;2023-06-14T05:12:14;101225.59;;;18.74;100.00
5356;BME280;70449;52.486;13.386;2023-06-14T05:14:45;101229.19;;;18.66;100.00
5356;BME280;70449;52.486;13.386;2023-06-14T05:17:12;101235.19;;;18.17;100.00
5356;BME280;70449;52.486;13.386;2023-06-14T05:19:40;101233.38;;;18.51;100.00
5356;BME280;70449;52.486;13.386;2023-06-14T05:22:07;101237.75;;;18.90;100.00
5356;BME280;70449;52.486;13.386;2023-06-14T05:24:35;101239.38;;;18.62;100.00
5356;BME280;70449;52.486;13.386;2023-06-14T05:27:04;101234.84;;;18.87;100.00
5356;BME280;70449;52.486;13.386;2023-06-14T05:29:34;101237.31;;;19.00;100.00
5356;BME280;70449;52.486;13.386;2023-06-14T05:32:01;101238.47;;;18.99;100.00
5356;BME280;70449;52.486;13.386;2023-06-14T05:34:29;101245.94;;;19.08;100.00
5356;BME280;70449;52.486;13.386;2023-06-14T05:36:56;101250.16;;;19.14;100.00
5356;BME280;70449;52.486;13.386;2023-06-14T05:39:23;101244.59;;;19.14;100.00
5356;BME280;70449;52.486;13.386;2023-06-14T05:41:51;101245.72;;;19.13;100.00
5356;BME280;70449;52.486;13.386;2023-06-14T05:44:19;101248.50;;;19.13;100.00
5356;BME280;70449;52.486;13.386;2023-06-14T05:46:46;101251.22;;;19.42;100.00
5356;BME280;70449;52.486;13.386;2023-06-14T05:49:14;101246.94;;;19.24;100.00
5356;BME280;70449;52.486;13.386;2023-06-14T05:51:41;101248.91;;;19.23;100.00
5356;BME280;70449;52.486;13.386;2023-06-14T05:54:08;101250.47;;;18.91;100.00
5356;BME280;70449;52.486;13.386;2023-06-14T05:56:35;101268.31;;;18.90;100.00
5356;BME280;70449;52.486;13.386;2023-06-14T05:59:03;101265.97;;;18.92;100.00
5356;BME280;70449;52.486;13.386;2023-06-14T06:01:31;101263.66;;;19.36;100.00
5356;BME280;70449;52.486;13.386;2023-06-14T06:03:59;101265.25;;;19.25;100.00
5356;BME280;70449;52.486;13.386;2023-06-14T06:06:26;101265.47;;;19.20;100.00
5356;BME280;70449;52.486;13.386;2023-06-14T06:08:54;101259.09;;;19.19;100.00
5356;BME280;70449;52.486;13.386;2023-06-14T06:11:21;101263.97;;;19.01;100.00
5356;BME280;70449;52.486;13.386;2023-06-14T06:13:49;101254.88;;;18.92;100.00
5356;BME280;70449;52.486;13.386;2023-06-14T06:16:16;101266.13;;;18.75;100.00
5356;BME280;70449;52.486;13.386;2023-06-14T06:18:44;101269.66;;;19.26;100.00
5356;BME280;70449;52.486;13.386;2023-06-14T06:21:12;101271.81;;;19.41;100.00
5356;BME280;70449;52.486;13.386;2023-06-14T06:23:39;101268.97;;;19.29;100.00
5356;BME280;70449;52.486;13.386;2023-06-14T06:26:06;101266.13;;;19.38;100.00
5356;BME280;70449;52.486;13.386;2023-06-14T06:28:33;101257.25;;;19.23;100.00
5356;BME280;70449;52.486;13.386;2023-06-14T06:31:01;101264.72;;;19.11;100.00
5356;BME280;70449;52.486;13.386;2023-06-14T06:33:28;101268.16;;;19.29;100.00
5356;BME280;70449;52.486;13.386;2023-06-14T06:35:57;101254.72;;;19.10;100.00
5356;BME280;70449;52.486;13.386;2023-06-14T06:38:25;101256.38;;;19.11;100.00
5356;BME280;70449;52.486;13.386;2023-06-14T06:40:52;101266.31;;;19.33;100.00
5356;BME280;70449;52.486;13.386;2023-06-14T06:43:20;101264.16;;;19.38;100.00
5356;BME280;70449;52.486;13.386;2023-06-14T06:45:47;101273.97;;;19.36;100.00
5356;BME280;70449;52.486;13.386;2023-06-14T06:48:14;101274.78;;;19.36;100.00
5356;BME280;70449;52.486;13.386;2023-06-14T06:50:41;101271.03;;;19.53;100.00
5356;BME280;70449;52.486;13.386;2023-06-14T06:53:10;101278.34;;;19.45;100.00
5356;BME280;70449;52.486;13.386;2023-06-14T06:55:37;101271.00;;;19.41;100.00
5356;BME280;70449;52.486;13.386;2023-06-14T06:58:04;101277.38;;;19.41;100.00
5356;BME280;70449;52.486;13.386;2023-06-14T07:00:50;101278.94;;;19.30;100.00
5356;BME280;70449;52.486;13.386;2023-06-14T07:03:17;101272.91;;;19.28;100.00
5356;BME280;70449;52.486;13.386;2023-06-14T07:05:45;101276.84;;;19.69;100.00
5356;BME280;70449;52.486;13.386;2023-06-14T07:08:13;101283.22;;;19.48;100.00
5356;BME280;70449;52.486;13.386;2023-06-14T07:10:41;101284.81;;;19.70;100.00
5356;BME280;70449;52.486;13.386;2023-06-14T07:13:08;101290.31;;;19.91;100.00
5356;BME280;70449;52.486;13.386;2023-06-14T07:15:35;101290.13;;;20.09;100.00
5356;BME280;70449;52.486;13.386;2023-06-14T07:18:03;101294.06;;;19.96;100.00
5356;BME280;70449;52.486;13.386;2023-06-14T07:20:30;101301.50;;;19.70;100.00
5356;BME280;70449;52.486;13.386;2023-06-14T07:22:58;101296.47;;;19.85;100.00
5356;BME280;70449;52.486;13.386;2023-06-14T07:25:27;101301.28;;;20.09;100.00
5356;BME280;70449;52.486;13.386;2023-06-14T07:27:54;101299.88;;;20.03;100.00
5356;BME280;70449;52.486;13.386;2023-06-14T07:30:22;101302.03;;;20.30;100.00
5356;BME280;70449;52.486;13.386;2023-06-14T07:32:51;101306.38;;;20.77;100.00
5356;BME280;70449;52.486;13.386;2023-06-14T07:35:19;101303.56;;;20.77;100.00
5356;BME280;70449;52.486;13.386;2023-06-14T07:37:46;101311.13;;;20.89;100.00
5356;BME280;70449;52.486;13.386;2023-06-14T07:40:14;101307.03;;;20.86;100.00
5356;BME280;70449;52.486;13.386;2023-06-14T07:42:42;101301.28;;;21.19;100.00
5356;BME280;70449;52.486;13.386;2023-06-14T07:45:14;101311.03;;;21.25;100.00
5356;BME280;70449;52.486;13.386;2023-06-14T07:47:41;101302.94;;;20.47;100.00
5356;BME280;70449;52.486;13.386;2023-06-14T07:50:09;101302.94;;;21.08;100.00
5356;BME280;70449;52.486;13.386;2023-06-14T07:52:38;101304.50;;;20.81;100.00
5356;BME280;70449;52.486;13.386;2023-06-14T07:55:07;101298.56;;;20.95;100.00
5356;BME280;70449;52.486;13.386;2023-06-14T07:57:34;101304.50;;;20.81;100.00
5356;BME280;70449;52.486;13.386;2023-06-14T08:00:04;101292.22;;;21.22;100.00
5356;BME280;70449;52.486;13.386;2023-06-14T08:02:33;101296.94;;;20.45;100.00
5356;BME280;70449;52.486;13.386;2023-06-14T08:05:00;101293.47;;;20.60;100.00
5356;BME280;70449;52.486;13.386;2023-06-14T08:07:27;101287.91;;;20.72;100.00
5356;BME280;70449;52.486;13.386;2023-06-14T08:09:54;101287.34;;;21.19;100.00
5356;BME280;70449;52.486;13.386;2023-06-14T08:12:22;101285.03;;;21.21;100.00
5356;BME280;70449;52.486;13.386;2023-06-14T08:14:49;101286.63;;;21.22;100.00
5356;BME280;70449;52.486;13.386;2023-06-14T08:17:18;101281.28;;;21.29;100.00
5356;BME280;70449;52.486;13.386;2023-06-14T08:19:46;101281.72;;;20.91;100.00
5356;BME280;70449;52.486;13.386;2023-06-14T08:22:13;101277.31;;;21.31;100.00
5356;BME280;70449;52.486;13.386;2023-06-14T08:24:40;101286.59;;;21.47;100.00
5356;BME280;70449;52.486;13.386;2023-06-14T08:27:11;101289.50;;;21.94;100.00
5356;BME280;70449;52.486;13.386;2023-06-14T08:29:39;101293.81;;;22.36;100.00
5356;BME280;70449;52.486;13.386;2023-06-14T08:32:07;101293.03;;;22.07;100.00
5356;BME280;70449;52.486;13.386;2023-06-14T08:34:36;101279.66;;;21.85;100.00
5356;BME280;70449;52.486;13.386;2023-06-14T08:37:04;101290.59;;;22.06;100.00
5356;BME280;70449;52.486;13.386;2023-06-14T08:39:32;101279.56;;;21.65;100.00
5356;BME280;70449;52.486;13.386;2023-06-14T08:42:02;101282.59;;;22.04;100.00
5356;BME280;70449;52.486;13.386;2023-06-14T08:44:30;101282.84;;;21.99;100.00
5356;BME280;70449;52.486;13.386;2023-06-14T08:46:58;101277.88;;;21.92;100.00
5356;BME280;70449;52.486;13.386;2023-06-14T08:49:27;101278.09;;;22.15;100.00
5356;BME280;70449;52.486;13.386;2023-06-14T08:51:58;101281.25;;;22.61;99.38
5356;BME280;70449;52.486;13.386;2023-06-14T08:54:26;101284.47;;;22.79;97.63
5356;BME280;70449;52.486;13.386;2023-06-14T08:56:56;101292.88;;;22.63;95.15
5356;BME280;70449;52.486;13.386;2023-06-14T08:59:26;101289.94;;;23.27;91.26
5356;BME280;70449;52.486;13.386;2023-06-14T09:01:53;101284.69;;;22.90;93.49
5356;BME280;70449;52.486;13.386;2023-06-14T09:04:21;101275.59;;;23.09;92.93
5356;BME280;70449;52.486;13.386;2023-06-14T09:06:50;101287.06;;;23.23;90.58
5356;BME280;70449;52.486;13.386;2023-06-14T09:09:21;101284.56;;;23.57;88.77
5356;BME280;70449;52.486;13.386;2023-06-14T09:11:49;101278.53;;;23.74;86.97
5356;BME280;70449;52.486;13.386;2023-06-14T09:14:18;101286.09;;;23.54;87.61
5356;BME280;70449;52.486;13.386;2023-06-14T09:16:46;101280.44;;;23.90;87.86
5356;BME280;70449;52.486;13.386;2023-06-14T09:19:20;101281.63;;;23.50;90.77
5356;BME280;70449;52.486;13.386;2023-06-14T09:21:48;101279.06;;;23.61;90.65
5356;BME280;70449;52.486;13.386;2023-06-14T09:24:20;101275.81;;;23.59;89.89
5356;BME280;70449;52.486;13.386;2023-06-14T09:26:48;101279.19;;;23.68;89.47
5356;BME280;70449;52.486;13.386;2023-06-14T09:29:17;101278.88;;;23.92;87.03
5356;BME280;70449;52.486;13.386;2023-06-14T09:31:46;101282.06;;;23.71;85.96
5356;BME280;70449;52.486;13.386;2023-06-14T09:34:14;101290.53;;;23.36;82.19
5356;BME280;70449;52.486;13.386;2023-06-14T09:36:43;101291.13;;;23.26;82.48
5356;BME280;70449;52.486;13.386;2023-06-14T09:39:11;101282.56;;;23.19;82.21
5356;BME280;70449;52.486;13.386;2023-06-14T09:41:45;101293.53;;;22.92;84.47
5356;BME280;70449;52.486;13.386;2023-06-14T09:44:12;101291.19;;;23.29;84.04
5356;BME280;70449;52.486;13.386;2023-06-14T09:46:39;101288.78;;;23.67;81.90
5356;BME280;70449;52.486;13.386;2023-06-14T09:49:08;101285.47;;;24.04;80.86
5356;BME280;70449;52.486;13.386;2023-06-14T09:51:42;101283.47;;;23.81;82.08
5356;BME280;70449;52.486;13.386;2023-06-14T09:54:16;101280.81;;;24.34;78.24
5356;BME280;70449;52.486;13.386;2023-06-14T09:56:51;101288.53;;;23.56;82.28
5356;BME280;70449;52.486;13.386;2023-06-14T09:59:22;101291.13;;;23.65;83.33
5356;BME280;70449;52.486;13.386;2023-06-14T10:01:58;101290.13;;;23.73;83.81
5356;BME280;70449;52.486;13.386;2023-06-14T10:04:30;101285.22;;;23.89;81.71
5356;BME280;70449;52.486;13.386;2023-06-14T10:06:59;101288.03;;;24.35;80.67
5356;BME280;70449;52.486;13.386;2023-06-14T10:09:28;101285.84;;;23.79;80.53
5356;BME280;70449;52.486;13.386;2023-06-14T10:11:58;101285.28;;;24.39;77.76
5356;BME280;70449;52.486;13.386;2023-06-14T10:14:27;101286.91;;;24.89;76.01
5356;BME280;70449;52.486;13.386;2023-06-14T10:17:33;101276.56;;;25.54;72.04
5356;BME280;70449;52.486;13.386;2023-06-14T10:20:19;101281.19;;;24.82;74.94
5356;BME280;70449;52.486;13.386;2023-06-14T10:22:52;101278.28;;;24.49;74.43
5356;BME280;70449;52.486;13.386;2023-06-14T10:25:28;101290.84;;;24.85;74.21
5356;BME280;70449;52.486;13.386;2023-06-14T10:28:16;101277.94;;;24.54;72.90
5356;BME280;70449;52.486;13.386;2023-06-14T10:31:03;101273.53;;;24.30;72.74
5356;BME280;70449;52.486;13.386;2023-06-14T10:33:31;101268.00;;;23.68;76.94
5356;BME280;70449;52.486;13.386;2023-06-14T10:36:25;101271.91;;;23.83;79.00
5356;BME280;70449;52.486;13.386;2023-06-14T10:39:01;101272.13;;;23.74;78.69
5356;BME280;70449;52.486;13.386;2023-06-14T10:41:32;101269.28;;;23.31;82.26
5356;BME280;70449;52.486;13.386;2023-06-14T10:44:50;101257.47;;;24.04;77.92
5356;BME280;70449;52.486;13.386;2023-06-14T10:47:26;101263.81;;;24.01;75.90
5356;BME280;70449;52.486;13.386;2023-06-14T10:49:55;101268.63;;;24.23;75.60
5356;BME280;70449;52.486;13.386;2023-06-14T10:52:28;101250.41;;;24.36;74.58
5356;BME280;70449;52.486;13.386;2023-06-14T10:55:13;101261.09;;;23.81;75.24
5356;BME280;70449;52.486;13.386;2023-06-14T10:57:43;101258.97;;;24.43;73.28
5356;BME280;70449;52.486;13.386;2023-06-14T11:00:15;101252.34;;;24.32;72.05
5356;BME280;70449;52.486;13.386;2023-06-14T11:06:15;101253.38;;;23.97;73.89
5356;BME280;70449;52.486;13.386;2023-06-14T11:09:26;101251.78;;;24.42;73.21
5356;BME280;70449;52.486;13.386;2023-06-14T11:12:01;101245.75;;;24.21;74.22
5356;BME280;70449;52.486;13.386;2023-06-14T11:14:30;101247.06;;;24.27;72.79
5356;BME280;70449;52.486;13.386;2023-06-14T11:16:59;101244.78;;;24.59;71.00
5356;BME280;70449;52.486;13.386;2023-06-14T11:19:26;101243.00;;;24.74;70.98
5356;BME280;70449;52.486;13.386;2023-06-14T11:21:54;101239.41;;;24.74;69.34
5356;BME280;70449;52.486;13.386;2023-06-14T11:24:22;101237.81;;;24.23;70.10
5356;BME280;70449;52.486;13.386;2023-06-14T11:26:49;101232.41;;;24.87;68.97
5356;BME280;70449;52.486;13.386;2023-06-14T11:29:17;101222.16;;;25.66;65.38
5356;BME280;70449;52.486;13.386;2023-06-14T11:31:47;101223.44;;;25.08;65.91
5356;BME280;70449;52.486;13.386;2023-06-14T11:34:16;101223.47;;;25.42;65.22
5356;BME280;70449;52.486;13.386;2023-06-14T11:36:44;101217.16;;;25.48;65.32
5356;BME280;70449;52.486;13.386;2023-06-14T11:39:13;101218.63;;;25.39;64.17
5356;BME280;70449;52.486;13.386;2023-06-14T11:41:42;101214.47;;;26.00;62.64
5356;BME280;70449;52.486;13.386;2023-06-14T11:44:11;101207.31;;;25.28;62.45
5356;BME280;70449;52.486;13.386;2023-06-14T11:46:39;101206.13;;;25.32;63.29
5356;BME280;70449;52.486;13.386;2023-06-14T11:49:07;101210.31;;;25.46;63.04
5356;BME280;70449;52.486;13.386;2023-06-14T11:51:36;101200.94;;;25.34;62.25
5356;BME280;70449;52.486;13.386;2023-06-14T11:54:06;101200.13;;;25.30;60.45
5356;BME280;70449;52.486;13.386;2023-06-14T11:56:36;101198.34;;;25.90;58.15
5356;BME280;70449;52.486;13.386;2023-06-14T11:59:04;101187.75;;;25.76;57.40
5356;BME280;70449;52.486;13.386;2023-06-14T12:01:31;101191.53;;;25.16;59.41
5356;BME280;70449;52.486;13.386;2023-06-14T12:03:59;101189.56;;;25.20;59.67
5356;BME280;70449;52.486;13.386;2023-06-14T12:06:29;101188.38;;;24.91;61.29
5356;BME280;70449;52.486;13.386;2023-06-14T12:09:03;101173.16;;;25.60;58.60
5356;BME280;70449;52.486;13.386;2023-06-14T12:11:34;101183.97;;;25.98;58.39
5356;BME280;70449;52.486;13.386;2023-06-14T12:14:04;101179.38;;;26.31;56.17
5356;BME280;70449;52.486;13.386;2023-06-14T12:16:34;101172.19;;;27.03;54.43
5356;BME280;70449;52.486;13.386;2023-06-14T12:19:12;101154.19;;;27.40;51.72
5356;BME280;70449;52.486;13.386;2023-06-14T12:21:41;101159.69;;;26.97;51.59
5356;BME280;70449;52.486;13.386;2023-06-14T12:24:11;101168.66;;;27.21;49.38
5356;BME280;70449;52.486;13.386;2023-06-14T12:26:39;101155.69;;;26.98;50.50
5356;BME280;70449;52.486;13.386;2023-06-14T12:29:08;101157.25;;;26.92;50.78
5356;BME280;70449;52.486;13.386;2023-06-14T12:31:35;101146.22;;;28.21;48.50
5356;BME280;70449;52.486;13.386;2023-06-14T12:34:02;101147.00;;;28.11;45.76
5356;BME280;70449;52.486;13.386;2023-06-14T12:36:30;101145.28;;;28.74;44.65
5356;BME280;70449;52.486;13.386;2023-06-14T12:38:58;101144.38;;;29.02;45.17
5356;BME280;70449;52.486;13.386;2023-06-14T12:41:26;101144.97;;;28.51;44.55
5356;BME280;70449;52.486;13.386;2023-06-14T12:43:54;101151.69;;;28.85;44.09
5356;BME280;70449;52.486;13.386;2023-06-14T12:46:21;101141.06;;;29.18;42.85
5356;BME280;70449;52.486;13.386;2023-06-14T12:48:51;101138.31;;;29.70;41.85
5356;BME280;70449;52.486;13.386;2023-06-14T12:51:21;101142.13;;;28.51;40.70
5356;BME280;70449;52.486;13.386;2023-06-14T12:53:52;101136.06;;;28.63;41.20
5356;BME280;70449;52.486;13.386;2023-06-14T12:56:20;101122.59;;;28.99;39.80
5356;BME280;70449;52.486;13.386;2023-06-14T12:58:48;101120.91;;;29.20;38.76